sensor_id;sensor_type;location;lat;lon;timestamp;P1;durP1;ratioP1;P2;durP2;ratioP2
10100;SDS011;5090;51.258;4.436;2023-05-14T00:01:25;77.93;;;48.27;;
10100;SDS011;5090;51.258;4.436;2023-05-14T00:03:53;72.43;;;48.50;;
10100;SDS011;5090;51.258;4.436;2023-05-14T00:06:21;76.53;;;47.87;;
10100;SDS011;5090;51.258;4.436;2023-05-14T00:08:51;73.77;;;48.27;;
10100;SDS011;5090;51.258;4.436;2023-05-14T00:11:19;78.17;;;48.23;;
10100;SDS011;5090;51.258;4.436;2023-05-14T00:13:48;77.93;;;48.67;;
10100;SDS011;5090;51.258;4.436;2023-05-14T00:16:15;79.23;;;49.93;;
10100;SDS011;5090;51.258;4.436;2023-05-14T00:18:43;76.33;;;49.13;;
10100;SDS011;5090;51.258;4.436;2023-05-14T00:21:12;70.33;;;48.63;;
10100;SDS011;5090;51.258;4.436;2023-05-14T00:23:40;79.17;;;49.37;;
10100;SDS011;5090;51.258;4.436;2023-05-14T00:26:08;79.37;;;48.23;;
10100;SDS011;5090;51.258;4.436;2023-05-14T00:28:36;76.37;;;49.03;;
10100;SDS011;5090;51.258;4.436;2023-05-14T00:31:05;73.27;;;47.27;;
10100;SDS011;5090;51.258;4.436;2023-05-14T00:33:33;72.57;;;47.20;;
10100;SDS011;5090;51.258;4.436;2023-05-14T00:36:01;81.20;;;47.03;;
10100;SDS011;5090;51.258;4.436;2023-05-14T00:38:30;79.47;;;48.23;;
10100;SDS011;5090;51.258;4.436;2023-05-14T00:40:58;78.93;;;47.37;;
10100;SDS011;5090;51.258;4.436;2023-05-14T00:43:27;72.57;;;49.40;;
10100;SDS011;5090;51.258;4.436;2023-05-14T00:45:55;77.47;;;47.43;;
10100;SDS011;5090;51.258;4.436;2023-05-14T00:48:24;72.23;;;47.60;;
10100;SDS011;5090;51.258;4.436;2023-05-14T00:50:52;69.57;;;46.20;;
10100;SDS011;5090;51.258;4.436;2023-05-14T00:53:20;83.70;;;47.20;;
10100;SDS011;5090;51.258;4.436;2023-05-14T00:55:48;83.57;;;49.80;;
10100;SDS011;5090;51.258;4.436;2023-05-14T00:58:16;74.53;;;47.20;;
10100;SDS011;5090;51.258;4.436;2023-05-14T01:00:44;75.20;;;48.07;;
10100;SDS011;5090;51.258;4.436;2023-05-14T01:03:13;75.37;;;47.43;;
10100;SDS011;5090;51.258;4.436;2023-05-14T01:08:19;84.63;;;46.40;;
10100;SDS011;5090;51.258;4.436;2023-05-14T01:10:46;69.10;;;46.17;;
10100;SDS011;5090;51.258;4.436;2023-05-14T01:15:56;74.80;;;46.03;;
10100;SDS011;5090;51.258;4.436;2023-05-14T01:18:24;79.27;;;46.67;;
10100;SDS011;5090;51.258;4.436;2023-05-14T01:20:53;68.73;;;46.70;;
10100;SDS011;5090;51.258;4.436;2023-05-14T01:23:21;74.67;;;46.80;;
10100;SDS011;5090;51.258;4.436;2023-05-14T01:25:49;76.57;;;46.30;;
10100;SDS011;5090;51.258;4.436;2023-05-14T01:28:18;73.70;;;46.40;;
10100;SDS011;5090;51.258;4.436;2023-05-14T01:30:53;73.83;;;47.33;;
10100;SDS011;5090;51.258;4.436;2023-05-14T01:33:17;78.13;;;46.37;;
10100;SDS011;5090;51.258;4.436;2023-05-14T01:35:44;76.20;;;46.90;;
10100;SDS011;5090;51.258;4.436;2023-05-14T01:38:14;71.50;;;45.23;;
10100;SDS011;5090;51.258;4.436;2023-05-14T01:40:41;75.43;;;46.23;;
10100;SDS011;5090;51.258;4.436;2023-05-14T01:43:09;69.67;;;45.43;;
10100;SDS011;5090;51.258;4.436;2023-05-14T01:45:37;74.27;;;46.53;;
10100;SDS011;5090;51.258;4.436;2023-05-14T01:48:06;80.20;;;46.17;;
10100;SDS011;5090;51.258;4.436;2023-05-14T01:50:34;75.43;;;45.17;;
10100;SDS011;5090;51.258;4.436;2023-05-14T01:53:02;76.67;;;46.60;;
10100;SDS011;5090;51.258;4.436;2023-05-14T01:55:30;76.10;;;45.70;;
10100;SDS011;5090;51.258;4.436;2023-05-14T01:57:58;74.33;;;45.63;;
10100;SDS011;5090;51.258;4.436;2023-05-14T02:00:27;72.27;;;46.97;;
10100;SDS011;5090;51.258;4.436;2023-05-14T02:02:55;77.63;;;47.03;;
10100;SDS011;5090;51.258;4.436;2023-05-14T02:05:23;72.10;;;44.17;;
10100;SDS011;5090;51.258;4.436;2023-05-14T02:07:51;83.17;;;46.40;;
10100;SDS011;5090;51.258;4.436;2023-05-14T02:10:19;76.07;;;45.10;;
10100;SDS011;5090;51.258;4.436;2023-05-14T02:12:48;71.63;;;45.07;;
10100;SDS011;5090;51.258;4.436;2023-05-14T02:15:16;74.27;;;45.27;;
10100;SDS011;5090;51.258;4.436;2023-05-14T02:17:44;75.53;;;46.30;;
10100;SDS011;5090;51.258;4.436;2023-05-14T02:20:13;68.23;;;43.93;;
10100;SDS011;5090;51.258;4.436;2023-05-14T02:22:41;74.47;;;45.03;;
10100;SDS011;5090;51.258;4.436;2023-05-14T02:25:09;75.50;;;45.20;;
10100;SDS011;5090;51.258;4.436;2023-05-14T02:27:38;76.23;;;45.27;;
10100;SDS011;5090;51.258;4.436;2023-05-14T02:30:06;71.47;;;44.63;;
10100;SDS011;5090;51.258;4.436;2023-05-14T02:32:35;77.97;;;45.70;;
10100;SDS011;5090;51.258;4.436;2023-05-14T02:35:03;77.50;;;45.63;;
10100;SDS011;5090;51.258;4.436;2023-05-14T02:37:31;84.17;;;45.00;;
10100;SDS011;5090;51.258;4.436;2023-05-14T02:39:59;81.17;;;45.97;;
10100;SDS011;5090;51.258;4.436;2023-05-14T02:42:28;73.80;;;44.83;;
10100;SDS011;5090;51.258;4.436;2023-05-14T02:44:56;81.10;;;46.33;;
10100;SDS011;5090;51.258;4.436;2023-05-14T02:47:24;75.50;;;43.73;;
10100;SDS011;5090;51.258;4.436;2023-05-14T02:49:52;72.53;;;44.07;;
10100;SDS011;5090;51.258;4.436;2023-05-14T02:52:20;76.20;;;45.03;;
10100;SDS011;5090;51.258;4.436;2023-05-14T02:54:49;78.07;;;44.17;;
10100;SDS011;5090;51.258;4.436;2023-05-14T02:57:17;72.80;;;43.60;;
10100;SDS011;5090;51.258;4.436;2023-05-14T02:59:45;76.37;;;45.50;;
10100;SDS011;5090;51.258;4.436;2023-05-14T03:02:13;76.20;;;45.20;;
10100;SDS011;5090;51.258;4.436;2023-05-14T03:04:42;78.10;;;45.37;;
10100;SDS011;5090;51.258;4.436;2023-05-14T03:07:10;75.73;;;43.47;;
10100;SDS011;5090;51.258;4.436;2023-05-14T03:09:38;74.20;;;44.73;;
10100;SDS011;5090;51.258;4.436;2023-05-14T03:12:06;70.47;;;43.03;;
10100;SDS011;5090;51.258;4.436;2023-05-14T03:14:35;71.30;;;44.17;;
10100;SDS011;5090;51.258;4.436;2023-05-14T03:17:07;70.27;;;43.90;;
10100;SDS011;5090;51.258;4.436;2023-05-14T03:19:35;70.57;;;42.20;;
10100;SDS011;5090;51.258;4.436;2023-05-14T03:22:04;70.33;;;41.23;;
10100;SDS011;5090;51.258;4.436;2023-05-14T03:24:33;74.73;;;43.23;;
10100;SDS011;5090;51.258;4.436;2023-05-14T03:27:01;75.10;;;44.47;;
10100;SDS011;5090;51.258;4.436;2023-05-14T03:29:29;71.63;;;42.70;;
10100;SDS011;5090;51.258;4.436;2023-05-14T03:31:57;69.73;;;40.27;;
10100;SDS011;5090;51.258;4.436;2023-05-14T03:34:25;67.70;;;41.20;;
10100;SDS011;5090;51.258;4.436;2023-05-14T03:36:53;76.10;;;42.40;;
10100;SDS011;5090;51.258;4.436;2023-05-14T03:39:22;67.60;;;41.63;;
10100;SDS011;5090;51.258;4.436;2023-05-14T03:41:50;65.13;;;40.87;;
10100;SDS011;5090;51.258;4.436;2023-05-14T03:44:18;69.57;;;40.23;;
10100;SDS011;5090;51.258;4.436;2023-05-14T03:46:46;64.30;;;40.07;;
10100;SDS011;5090;51.258;4.436;2023-05-14T03:49:14;61.80;;;38.33;;
10100;SDS011;5090;51.258;4.436;2023-05-14T03:51:43;73.80;;;41.63;;
10100;SDS011;5090;51.258;4.436;2023-05-14T03:54:11;68.10;;;40.20;;
10100;SDS011;5090;51.258;4.436;2023-05-14T03:56:39;67.47;;;39.13;;
10100;SDS011;5090;51.258;4.436;2023-05-14T03:59:07;69.83;;;40.97;;
10100;SDS011;5090;51.258;4.436;2023-05-14T04:01:35;69.77;;;39.07;;
10100;SDS011;5090;51.258;4.436;2023-05-14T04:04:03;64.93;;;39.17;;
10100;SDS011;5090;51.258;4.436;2023-05-14T04:06:32;61.53;;;39.00;;
10100;SDS011;5090;51.258;4.436;2023-05-14T04:09:00;61.10;;;38.03;;
10100;SDS011;5090;51.258;4.436;2023-05-14T04:11:28;66.53;;;40.17;;
10100;SDS011;5090;51.258;4.436;2023-05-14T04:13:56;68.90;;;39.90;;
10100;SDS011;5090;51.258;4.436;2023-05-14T04:16:24;66.93;;;39.83;;
10100;SDS011;5090;51.258;4.436;2023-05-14T04:18:53;64.33;;;39.97;;
10100;SDS011;5090;51.258;4.436;2023-05-14T04:21:21;68.83;;;41.10;;
10100;SDS011;5090;51.258;4.436;2023-05-14T04:23:49;67.37;;;39.60;;
10100;SDS011;5090;51.258;4.436;2023-05-14T04:26:17;75.77;;;40.77;;
10100;SDS011;5090;51.258;4.436;2023-05-14T04:28:46;62.70;;;39.67;;
10100;SDS011;5090;51.258;4.436;2023-05-14T04:31:14;64.87;;;40.30;;
10100;SDS011;5090;51.258;4.436;2023-05-14T04:33:42;62.33;;;39.50;;
10100;SDS011;5090;51.258;4.436;2023-05-14T04:36:10;69.10;;;39.60;;
10100;SDS011;5090;51.258;4.436;2023-05-14T04:38:38;66.93;;;40.87;;
10100;SDS011;5090;51.258;4.436;2023-05-14T04:41:07;72.47;;;42.70;;
10100;SDS011;5090;51.258;4.436;2023-05-14T04:43:35;74.07;;;41.97;;
10100;SDS011;5090;51.258;4.436;2023-05-14T04:46:03;74.20;;;40.97;;
10100;SDS011;5090;51.258;4.436;2023-05-14T04:48:31;71.07;;;42.07;;
10100;SDS011;5090;51.258;4.436;2023-05-14T04:50:59;74.37;;;42.47;;
10100;SDS011;5090;51.258;4.436;2023-05-14T04:53:28;74.37;;;40.90;;
10100;SDS011;5090;51.258;4.436;2023-05-14T04:55:56;73.27;;;43.87;;
10100;SDS011;5090;51.258;4.436;2023-05-14T04:58:24;63.90;;;41.43;;
10100;SDS011;5090;51.258;4.436;2023-05-14T05:00:52;61.17;;;39.03;;
10100;SDS011;5090;51.258;4.436;2023-05-14T05:03:20;62.67;;;39.00;;
10100;SDS011;5090;51.258;4.436;2023-05-14T05:05:49;53.17;;;37.43;;
10100;SDS011;5090;51.258;4.436;2023-05-14T05:08:17;55.80;;;35.17;;
10100;SDS011;5090;51.258;4.436;2023-05-14T05:10:45;48.80;;;33.80;;
10100;SDS011;5090;51.258;4.436;2023-05-14T05:13:13;50.47;;;34.67;;
10100;SDS011;5090;51.258;4.436;2023-05-14T05:15:42;52.53;;;32.17;;
10100;SDS011;5090;51.258;4.436;2023-05-14T05:18:10;45.63;;;32.67;;
10100;SDS011;5090;51.258;4.436;2023-05-14T05:20:38;44.13;;;30.00;;
10100;SDS011;5090;51.258;4.436;2023-05-14T05:23:06;40.03;;;28.53;;
10100;SDS011;5090;51.258;4.436;2023-05-14T05:25:35;43.37;;;28.37;;
10100;SDS011;5090;51.258;4.436;2023-05-14T05:28:03;43.20;;;27.23;;
10100;SDS011;5090;51.258;4.436;2023-05-14T05:30:32;41.93;;;26.70;;
10100;SDS011;5090;51.258;4.436;2023-05-14T05:33:00;45.03;;;28.17;;
10100;SDS011;5090;51.258;4.436;2023-05-14T05:35:28;40.13;;;26.00;;
10100;SDS011;5090;51.258;4.436;2023-05-14T05:37:56;44.70;;;26.87;;
10100;SDS011;5090;51.258;4.436;2023-05-14T05:40:24;39.00;;;26.87;;
10100;SDS011;5090;51.258;4.436;2023-05-14T05:42:57;35.70;;;24.53;;
10100;SDS011;5090;51.258;4.436;2023-05-14T05:45:25;37.77;;;24.47;;
10100;SDS011;5090;51.258;4.436;2023-05-14T05:47:53;35.10;;;24.80;;
10100;SDS011;5090;51.258;4.436;2023-05-14T05:50:22;35.30;;;24.17;;
10100;SDS011;5090;51.258;4.436;2023-05-14T05:52:50;32.97;;;22.33;;
10100;SDS011;5090;51.258;4.436;2023-05-14T05:55:18;38.23;;;22.17;;
10100;SDS011;5090;51.258;4.436;2023-05-14T05:57:46;29.87;;;21.13;;
10100;SDS011;5090;51.258;4.436;2023-05-14T06:00:15;30.37;;;21.65;;
10100;SDS011;5090;51.258;4.436;2023-05-14T06:02:43;31.52;;;21.15;;
10100;SDS011;5090;51.258;4.436;2023-05-14T06:05:11;29.52;;;21.08;;
10100;SDS011;5090;51.258;4.436;2023-05-14T06:07:40;30.80;;;20.63;;
10100;SDS011;5090;51.258;4.436;2023-05-14T06:10:08;26.70;;;20.20;;
10100;SDS011;5090;51.258;4.436;2023-05-14T06:12:36;35.60;;;20.95;;
10100;SDS011;5090;51.258;4.436;2023-05-14T06:15:04;27.40;;;19.80;;
10100;SDS011;5090;51.258;4.436;2023-05-14T06:17:33;28.95;;;20.08;;
10100;SDS011;5090;51.258;4.436;2023-05-14T06:20:01;29.73;;;18.65;;
10100;SDS011;5090;51.258;4.436;2023-05-14T06:22:29;25.30;;;18.95;;
10100;SDS011;5090;51.258;4.436;2023-05-14T06:24:57;25.30;;;19.17;;
10100;SDS011;5090;51.258;4.436;2023-05-14T06:27:26;28.27;;;20.75;;
10100;SDS011;5090;51.258;4.436;2023-05-14T06:29:54;28.87;;;19.77;;
10100;SDS011;5090;51.258;4.436;2023-05-14T06:32:22;31.95;;;22.55;;
10100;SDS011;5090;51.258;4.436;2023-05-14T06:34:50;29.80;;;21.08;;
10100;SDS011;5090;51.258;4.436;2023-05-14T06:37:19;32.72;;;22.45;;
10100;SDS011;5090;51.258;4.436;2023-05-14T06:39:47;34.23;;;21.37;;
10100;SDS011;5090;51.258;4.436;2023-05-14T06:42:15;33.33;;;23.27;;
10100;SDS011;5090;51.258;4.436;2023-05-14T06:44:44;31.57;;;23.07;;
10100;SDS011;5090;51.258;4.436;2023-05-14T06:47:12;30.53;;;22.80;;
10100;SDS011;5090;51.258;4.436;2023-05-14T06:49:40;36.43;;;23.03;;
10100;SDS011;5090;51.258;4.436;2023-05-14T06:52:09;38.10;;;24.27;;
10100;SDS011;5090;51.258;4.436;2023-05-14T06:54:37;31.23;;;22.90;;
10100;SDS011;5090;51.258;4.436;2023-05-14T06:57:05;31.03;;;22.87;;
10100;SDS011;5090;51.258;4.436;2023-05-14T06:59:33;33.33;;;22.00;;
10100;SDS011;5090;51.258;4.436;2023-05-14T07:02:02;30.17;;;21.80;;
10100;SDS011;5090;51.258;4.436;2023-05-14T07:04:30;30.10;;;20.80;;
10100;SDS011;5090;51.258;4.436;2023-05-14T07:06:59;28.50;;;21.40;;
10100;SDS011;5090;51.258;4.436;2023-05-14T07:09:27;29.10;;;20.43;;
10100;SDS011;5090;51.258;4.436;2023-05-14T07:11:55;31.03;;;21.60;;
10100;SDS011;5090;51.258;4.436;2023-05-14T07:14:23;30.43;;;22.00;;
10100;SDS011;5090;51.258;4.436;2023-05-14T07:16:52;33.43;;;22.03;;
10100;SDS011;5090;51.258;4.436;2023-05-14T07:19:20;28.23;;;21.90;;
10100;SDS011;5090;51.258;4.436;2023-05-14T07:21:49;34.67;;;21.30;;
10100;SDS011;5090;51.258;4.436;2023-05-14T07:24:17;25.43;;;20.30;;
10100;SDS011;5090;51.258;4.436;2023-05-14T07:26:46;31.67;;;20.37;;
10100;SDS011;5090;51.258;4.436;2023-05-14T07:29:14;27.25;;;18.60;;
10100;SDS011;5090;51.258;4.436;2023-05-14T07:31:43;31.58;;;19.67;;
10100;SDS011;5090;51.258;4.436;2023-05-14T07:34:11;27.20;;;20.37;;
10100;SDS011;5090;51.258;4.436;2023-05-14T07:36:40;26.80;;;21.95;;
10100;SDS011;5090;51.258;4.436;2023-05-14T07:39:09;29.70;;;22.50;;
10100;SDS011;5090;51.258;4.436;2023-05-14T07:41:38;35.33;;;22.13;;
10100;SDS011;5090;51.258;4.436;2023-05-14T07:44:06;29.50;;;22.13;;
10100;SDS011;5090;51.258;4.436;2023-05-14T07:46:35;28.62;;;21.98;;
10100;SDS011;5090;51.258;4.436;2023-05-14T07:49:03;32.72;;;22.23;;
10100;SDS011;5090;51.258;4.436;2023-05-14T07:51:31;29.67;;;22.27;;
10100;SDS011;5090;51.258;4.436;2023-05-14T07:54:00;28.65;;;22.77;;
10100;SDS011;5090;51.258;4.436;2023-05-14T07:56:28;32.03;;;23.65;;
10100;SDS011;5090;51.258;4.436;2023-05-14T07:58:57;30.62;;;24.70;;
10100;SDS011;5090;51.258;4.436;2023-05-14T08:01:25;31.25;;;23.67;;
10100;SDS011;5090;51.258;4.436;2023-05-14T08:03:54;30.67;;;23.33;;
10100;SDS011;5090;51.258;4.436;2023-05-14T08:06:23;34.65;;;24.12;;
10100;SDS011;5090;51.258;4.436;2023-05-14T08:08:50;28.65;;;22.30;;
10100;SDS011;5090;51.258;4.436;2023-05-14T08:11:18;30.77;;;22.07;;
10100;SDS011;5090;51.258;4.436;2023-05-14T08:13:47;27.17;;;21.47;;
10100;SDS011;5090;51.258;4.436;2023-05-14T08:16:15;32.50;;;22.50;;
10100;SDS011;5090;51.258;4.436;2023-05-14T08:18:43;30.15;;;22.40;;
10100;SDS011;5090;51.258;4.436;2023-05-14T08:21:11;29.75;;;24.60;;
10100;SDS011;5090;51.258;4.436;2023-05-14T08:23:39;27.23;;;22.05;;
10100;SDS011;5090;51.258;4.436;2023-05-14T08:26:08;28.92;;;23.00;;
10100;SDS011;5090;51.258;4.436;2023-05-14T08:28:36;31.40;;;22.08;;
10100;SDS011;5090;51.258;4.436;2023-05-14T08:31:04;29.02;;;20.75;;
10100;SDS011;5090;51.258;4.436;2023-05-14T08:33:32;31.23;;;22.00;;
10100;SDS011;5090;51.258;4.436;2023-05-14T08:36:00;27.87;;;21.80;;
10100;SDS011;5090;51.258;4.436;2023-05-14T08:38:29;26.73;;;21.42;;
10100;SDS011;5090;51.258;4.436;2023-05-14T08:40:57;30.85;;;21.95;;
10100;SDS011;5090;51.258;4.436;2023-05-14T08:43:27;26.27;;;22.00;;
10100;SDS011;5090;51.258;4.436;2023-05-14T08:45:56;27.27;;;21.25;;
10100;SDS011;5090;51.258;4.436;2023-05-14T08:48:22;24.40;;;19.23;;
10100;SDS011;5090;51.258;4.436;2023-05-14T08:50:50;24.83;;;20.65;;
10100;SDS011;5090;51.258;4.436;2023-05-14T08:53:19;25.00;;;20.15;;
10100;SDS011;5090;51.258;4.436;2023-05-14T08:55:47;25.90;;;20.52;;
10100;SDS011;5090;51.258;4.436;2023-05-14T08:58:15;27.33;;;20.88;;
10100;SDS011;5090;51.258;4.436;2023-05-14T09:00:43;24.30;;;20.15;;
10100;SDS011;5090;51.258;4.436;2023-05-14T09:03:11;24.67;;;19.50;;
10100;SDS011;5090;51.258;4.436;2023-05-14T09:05:40;22.98;;;19.30;;
10100;SDS011;5090;51.258;4.436;2023-05-14T09:08:08;26.85;;;19.77;;
10100;SDS011;5090;51.258;4.436;2023-05-14T09:10:40;25.80;;;19.23;;
10100;SDS011;5090;51.258;4.436;2023-05-14T09:13:08;25.42;;;19.58;;
10100;SDS011;5090;51.258;4.436;2023-05-14T09:15:37;26.45;;;19.92;;
10100;SDS011;5090;51.258;4.436;2023-05-14T09:18:05;22.55;;;19.08;;
10100;SDS011;5090;51.258;4.436;2023-05-14T09:20:33;23.48;;;19.35;;
10100;SDS011;5090;51.258;4.436;2023-05-14T09:23:01;25.15;;;20.50;;
10100;SDS011;5090;51.258;4.436;2023-05-14T09:25:30;25.95;;;21.05;;
10100;SDS011;5090;51.258;4.436;2023-05-14T09:27:58;25.10;;;21.15;;
10100;SDS011;5090;51.258;4.436;2023-05-14T09:30:26;25.58;;;20.40;;
10100;SDS011;5090;51.258;4.436;2023-05-14T09:32:54;26.90;;;20.52;;
10100;SDS011;5090;51.258;4.436;2023-05-14T09:35:23;27.15;;;20.85;;
10100;SDS011;5090;51.258;4.436;2023-05-14T09:37:52;28.00;;;22.23;;
10100;SDS011;5090;51.258;4.436;2023-05-14T09:40:19;26.12;;;20.77;;
10100;SDS011;5090;51.258;4.436;2023-05-14T09:42:47;25.33;;;21.42;;
10100;SDS011;5090;51.258;4.436;2023-05-14T09:45:15;26.30;;;21.62;;
10100;SDS011;5090;51.258;4.436;2023-05-14T09:47:43;29.23;;;22.73;;
10100;SDS011;5090;51.258;4.436;2023-05-14T09:50:12;28.90;;;23.25;;
10100;SDS011;5090;51.258;4.436;2023-05-14T09:52:40;33.60;;;25.12;;
10100;SDS011;5090;51.258;4.436;2023-05-14T09:55:08;30.02;;;23.30;;
10100;SDS011;5090;51.258;4.436;2023-05-14T09:57:37;33.33;;;24.15;;
10100;SDS011;5090;51.258;4.436;2023-05-14T10:00:05;30.45;;;24.05;;
10100;SDS011;5090;51.258;4.436;2023-05-14T10:02:35;29.80;;;24.35;;
10100;SDS011;5090;51.258;4.436;2023-05-14T10:05:03;30.70;;;23.05;;
10100;SDS011;5090;51.258;4.436;2023-05-14T10:07:40;31.12;;;23.10;;
10100;SDS011;5090;51.258;4.436;2023-05-14T10:10:06;29.92;;;22.77;;
10100;SDS011;5090;51.258;4.436;2023-05-14T10:12:35;25.20;;;22.05;;
10100;SDS011;5090;51.258;4.436;2023-05-14T10:15:12;27.92;;;22.33;;
10100;SDS011;5090;51.258;4.436;2023-05-14T10:17:40;29.85;;;22.25;;
10100;SDS011;5090;51.258;4.436;2023-05-14T10:20:09;27.08;;;21.60;;
10100;SDS011;5090;51.258;4.436;2023-05-14T10:22:38;24.15;;;20.08;;
10100;SDS011;5090;51.258;4.436;2023-05-14T10:25:06;27.90;;;21.55;;
10100;SDS011;5090;51.258;4.436;2023-05-14T10:27:35;25.83;;;20.35;;
10100;SDS011;5090;51.258;4.436;2023-05-14T10:30:05;25.12;;;20.33;;
10100;SDS011;5090;51.258;4.436;2023-05-14T10:32:32;26.12;;;21.00;;
10100;SDS011;5090;51.258;4.436;2023-05-14T10:35:00;26.62;;;20.88;;
10100;SDS011;5090;51.258;4.436;2023-05-14T10:37:28;28.20;;;20.92;;
10100;SDS011;5090;51.258;4.436;2023-05-14T10:39:58;28.52;;;20.52;;
10100;SDS011;5090;51.258;4.436;2023-05-14T10:42:26;25.42;;;20.80;;
10100;SDS011;5090;51.258;4.436;2023-05-14T10:44:54;25.65;;;19.98;;
10100;SDS011;5090;51.258;4.436;2023-05-14T10:47:22;29.30;;;20.15;;
10100;SDS011;5090;51.258;4.436;2023-05-14T10:49:51;26.55;;;20.40;;
10100;SDS011;5090;51.258;4.436;2023-05-14T10:52:18;27.55;;;21.33;;
10100;SDS011;5090;51.258;4.436;2023-05-14T10:54:53;23.27;;;20.70;;
10100;SDS011;5090;51.258;4.436;2023-05-14T10:57:21;26.65;;;21.45;;
10100;SDS011;5090;51.258;4.436;2023-05-14T10:59:50;22.87;;;20.08;;
10100;SDS011;5090;51.258;4.436;2023-05-14T11:02:19;28.35;;;19.77;;
10100;SDS011;5090;51.258;4.436;2023-05-14T11:04:51;26.20;;;19.85;;
10100;SDS011;5090;51.258;4.436;2023-05-14T11:07:22;27.15;;;20.37;;
10100;SDS011;5090;51.258;4.436;2023-05-14T11:09:49;24.10;;;17.55;;
10100;SDS011;5090;51.258;4.436;2023-05-14T11:12:17;22.45;;;16.98;;
10100;SDS011;5090;51.258;4.436;2023-05-14T11:14:45;29.02;;;19.33;;
10100;SDS011;5090;51.258;4.436;2023-05-14T11:17:14;23.90;;;18.77;;
10100;SDS011;5090;51.258;4.436;2023-05-14T11:19:42;22.85;;;17.95;;
10100;SDS011;5090;51.258;4.436;2023-05-14T11:22:10;25.27;;;18.67;;
10100;SDS011;5090;51.258;4.436;2023-05-14T11:24:40;23.77;;;17.65;;
10100;SDS011;5090;51.258;4.436;2023-05-14T11:27:09;24.33;;;18.23;;
10100;SDS011;5090;51.258;4.436;2023-05-14T11:29:37;27.02;;;18.25;;
10100;SDS011;5090;51.258;4.436;2023-05-14T11:32:05;26.02;;;18.70;;
10100;SDS011;5090;51.258;4.436;2023-05-14T11:34:33;24.02;;;16.30;;
10100;SDS011;5090;51.258;4.436;2023-05-14T11:37:02;23.35;;;16.40;;
10100;SDS011;5090;51.258;4.436;2023-05-14T11:39:30;24.50;;;16.52;;
10100;SDS011;5090;51.258;4.436;2023-05-14T11:42:01;24.83;;;16.67;;
10100;SDS011;5090;51.258;4.436;2023-05-14T11:44:26;21.75;;;17.25;;
10100;SDS011;5090;51.258;4.436;2023-05-14T11:46:55;21.42;;;16.70;;
10100;SDS011;5090;51.258;4.436;2023-05-14T11:49:23;25.58;;;16.50;;
10100;SDS011;5090;51.258;4.436;2023-05-14T11:51:56;25.67;;;16.37;;
10100;SDS011;5090;51.258;4.436;2023-05-14T11:54:25;20.70;;;15.25;;
10100;SDS011;5090;51.258;4.436;2023-05-14T11:56:53;21.60;;;14.35;;
10100;SDS011;5090;51.258;4.436;2023-05-14T11:59:23;21.67;;;15.40;;
10100;SDS011;5090;51.258;4.436;2023-05-14T12:01:49;21.45;;;13.90;;
10100;SDS011;5090;51.258;4.436;2023-05-14T12:04:17;19.73;;;14.32;;
10100;SDS011;5090;51.258;4.436;2023-05-14T12:06:45;22.80;;;14.43;;
10100;SDS011;5090;51.258;4.436;2023-05-14T12:09:15;25.02;;;14.05;;
10100;SDS011;5090;51.258;4.436;2023-05-14T12:11:42;25.35;;;15.38;;
10100;SDS011;5090;51.258;4.436;2023-05-14T12:14:13;23.23;;;15.10;;
10100;SDS011;5090;51.258;4.436;2023-05-14T12:16:39;20.80;;;14.07;;
10100;SDS011;5090;51.258;4.436;2023-05-14T12:19:08;21.50;;;13.13;;
10100;SDS011;5090;51.258;4.436;2023-05-14T12:21:36;23.73;;;14.23;;
10100;SDS011;5090;51.258;4.436;2023-05-14T12:24:09;20.23;;;14.63;;
10100;SDS011;5090;51.258;4.436;2023-05-14T12:26:39;18.92;;;14.40;;
10100;SDS011;5090;51.258;4.436;2023-05-14T12:29:06;19.73;;;13.85;;
10100;SDS011;5090;51.258;4.436;2023-05-14T12:31:36;22.27;;;15.50;;
10100;SDS011;5090;51.258;4.436;2023-05-14T12:34:04;20.40;;;13.77;;
10100;SDS011;5090;51.258;4.436;2023-05-14T12:36:33;23.00;;;15.32;;
10100;SDS011;5090;51.258;4.436;2023-05-14T12:39:01;23.25;;;13.43;;
10100;SDS011;5090;51.258;4.436;2023-05-14T12:41:30;22.92;;;15.30;;
10100;SDS011;5090;51.258;4.436;2023-05-14T12:43:58;24.48;;;14.40;;
10100;SDS011;5090;51.258;4.436;2023-05-14T12:46:26;22.83;;;13.90;;
10100;SDS011;5090;51.258;4.436;2023-05-14T12:48:54;27.15;;;15.23;;
10100;SDS011;5090;51.258;4.436;2023-05-14T12:51:23;20.35;;;13.82;;
10100;SDS011;5090;51.258;4.436;2023-05-14T12:53:51;19.98;;;14.48;;
10100;SDS011;5090;51.258;4.436;2023-05-14T12:56:19;24.50;;;14.05;;
10100;SDS011;5090;51.258;4.436;2023-05-14T12:58:47;19.50;;;13.80;;
10100;SDS011;5090;51.258;4.436;2023-05-14T13:01:16;23.42;;;13.82;;
10100;SDS011;5090;51.258;4.436;2023-05-14T13:03:44;20.52;;;13.13;;
10100;SDS011;5090;51.258;4.436;2023-05-14T13:06:12;22.67;;;13.35;;
10100;SDS011;5090;51.258;4.436;2023-05-14T13:08:40;22.62;;;12.60;;
10100;SDS011;5090;51.258;4.436;2023-05-14T13:11:09;14.52;;;12.25;;
10100;SDS011;5090;51.258;4.436;2023-05-14T13:13:37;17.58;;;12.23;;
10100;SDS011;5090;51.258;4.436;2023-05-14T13:16:05;19.92;;;12.15;;
10100;SDS011;5090;51.258;4.436;2023-05-14T13:18:34;23.23;;;13.40;;
10100;SDS011;5090;51.258;4.436;2023-05-14T13:21:02;19.42;;;11.93;;
10100;SDS011;5090;51.258;4.436;2023-05-14T13:23:31;26.45;;;13.68;;
10100;SDS011;5090;51.258;4.436;2023-05-14T13:25:59;18.70;;;11.98;;
10100;SDS011;5090;51.258;4.436;2023-05-14T13:28:27;18.33;;;11.60;;
10100;SDS011;5090;51.258;4.436;2023-05-14T13:31:02;19.98;;;11.70;;
10100;SDS011;5090;51.258;4.436;2023-05-14T13:33:29;18.50;;;11.63;;
10100;SDS011;5090;51.258;4.436;2023-05-14T13:35:57;14.07;;;11.60;;
10100;SDS011;5090;51.258;4.436;2023-05-14T13:38:26;20.00;;;12.80;;
10100;SDS011;5090;51.258;4.436;2023-05-14T13:40:54;19.10;;;11.27;;
10100;SDS011;5090;51.258;4.436;2023-05-14T13:43:22;17.85;;;11.07;;
10100;SDS011;5090;51.258;4.436;2023-05-14T13:45:51;14.30;;;10.63;;
10100;SDS011;5090;51.258;4.436;2023-05-14T13:48:19;15.60;;;10.80;;
10100;SDS011;5090;51.258;4.436;2023-05-14T13:50:47;18.10;;;11.55;;
10100;SDS011;5090;51.258;4.436;2023-05-14T13:53:15;20.65;;;11.38;;
10100;SDS011;5090;51.258;4.436;2023-05-14T13:55:43;17.33;;;11.68;;
10100;SDS011;5090;51.258;4.436;2023-05-14T13:58:12;21.98;;;11.27;;
10100;SDS011;5090;51.258;4.436;2023-05-14T14:00:41;15.85;;;10.65;;
10100;SDS011;5090;51.258;4.436;2023-05-14T14:03:09;15.52;;;11.52;;
10100;SDS011;5090;51.258;4.436;2023-05-14T14:05:37;16.15;;;10.25;;
10100;SDS011;5090;51.258;4.436;2023-05-14T14:08:05;17.98;;;10.50;;
10100;SDS011;5090;51.258;4.436;2023-05-14T14:10:33;14.30;;;10.43;;
10100;SDS011;5090;51.258;4.436;2023-05-14T14:13:02;13.98;;;9.20;;
10100;SDS011;5090;51.258;4.436;2023-05-14T14:15:30;18.15;;;9.57;;
10100;SDS011;5090;51.258;4.436;2023-05-14T14:17:59;14.32;;;11.23;;
10100;SDS011;5090;51.258;4.436;2023-05-14T14:20:27;17.23;;;9.73;;
10100;SDS011;5090;51.258;4.436;2023-05-14T14:22:55;15.27;;;9.60;;
10100;SDS011;5090;51.258;4.436;2023-05-14T14:25:23;15.23;;;9.75;;
10100;SDS011;5090;51.258;4.436;2023-05-14T14:27:52;14.50;;;9.18;;
10100;SDS011;5090;51.258;4.436;2023-05-14T14:30:20;14.50;;;9.40;;
10100;SDS011;5090;51.258;4.436;2023-05-14T14:32:48;22.48;;;9.57;;
10100;SDS011;5090;51.258;4.436;2023-05-14T14:35:17;15.55;;;9.00;;
10100;SDS011;5090;51.258;4.436;2023-05-14T14:37:45;17.15;;;9.18;;
10100;SDS011;5090;51.258;4.436;2023-05-14T14:40:16;12.37;;;8.43;;
10100;SDS011;5090;51.258;4.436;2023-05-14T14:42:45;16.08;;;9.30;;
10100;SDS011;5090;51.258;4.436;2023-05-14T14:45:13;19.85;;;9.63;;
10100;SDS011;5090;51.258;4.436;2023-05-14T14:47:42;15.73;;;9.70;;